6
$\begingroup$

I understand the long form: "Remarks: runway 7 Automated Terminal Information Service (ATIS) G landline"

But what I don't understand is what runway 7 has to do with the ATIS information (this particular airport has one runway, RWY 7-25). What does the 'G' mean? What does the 'landline' mean?

$\endgroup$
  • 1
    $\begingroup$ Can you produce the entire ATIS $\endgroup$ – rbp Nov 21 '15 at 18:53
  • $\begingroup$ KLZU 211745Z 10006KT 10SM OVC018 13/03 A3005 RMK RWY 7 ATIS G LL $\endgroup$ – jskypilot Nov 21 '15 at 21:50
11
$\begingroup$

I have a suspicion that you're looking at KLZU's METAR. Basically, they're inputting their manually written METAR into the system, and when they send it out they're adding the Runway in Use(RWY 7) and ATIS code(ATIS G) to their METAR, which they're really not supposed to do. I suspect that LL is the person who recorded it's operating initials at the facility, also not supposed to be transmitted as a part of the METAR.

$\endgroup$
  • $\begingroup$ This is KLZU, that's pretty amazing you knew that. Thanks for the info, sounds like some manual mistakes on this one. $\endgroup$ – jskypilot Nov 21 '15 at 21:49

Your Answer

By clicking “Post Your Answer”, you agree to our terms of service, privacy policy and cookie policy

Not the answer you're looking for? Browse other questions tagged or ask your own question.